sensor_id;sensor_type;location;lat;lon;timestamp;temperature;humidity
45735;DHT22;31446;49.632;8.328;2023-02-01T00:05:07;6.50;99.90
45735;DHT22;31446;49.632;8.328;2023-02-01T00:20:13;6.40;99.90
45735;DHT22;31446;49.632;8.328;2023-02-01T00:35:19;6.50;99.90
45735;DHT22;31446;49.632;8.328;2023-02-01T00:50:25;6.50;99.90
45735;DHT22;31446;49.632;8.328;2023-02-01T01:05:31;6.50;99.90
45735;DHT22;31446;49.632;8.328;2023-02-01T01:20:39;6.70;99.90
45735;DHT22;31446;49.632;8.328;2023-02-01T01:35:45;6.70;99.90
45735;DHT22;31446;49.632;8.328;2023-02-01T01:50:56;6.50;99.90
45735;DHT22;31446;49.632;8.328;2023-02-01T02:06:04;6.50;99.90
45735;DHT22;31446;49.632;8.328;2023-02-01T02:21:21;6.50;99.90
45735;DHT22;31446;49.632;8.328;2023-02-01T02:36:46;6.40;99.90
45735;DHT22;31446;49.632;8.328;2023-02-01T02:51:57;6.40;99.90
45735;DHT22;31446;49.632;8.328;2023-02-01T03:22:51;6.50;99.90
45735;DHT22;31446;49.632;8.328;2023-02-01T03:38:03;6.60;99.90
45735;DHT22;31446;49.632;8.328;2023-02-01T03:53:17;6.70;99.90
45735;DHT22;31446;49.632;8.328;2023-02-01T04:08:23;6.70;99.90
45735;DHT22;31446;49.632;8.328;2023-02-01T04:23:30;6.50;99.90
45735;DHT22;31446;49.632;8.328;2023-02-01T04:38:36;6.20;99.90
45735;DHT22;31446;49.632;8.328;2023-02-01T04:53:43;6.10;99.90
45735;DHT22;31446;49.632;8.328;2023-02-01T05:08:49;6.10;99.90
45735;DHT22;31446;49.632;8.328;2023-02-01T05:23:55;6.10;99.90
45735;DHT22;31446;49.632;8.328;2023-02-01T05:39:16;6.10;99.90
45735;DHT22;31446;49.632;8.328;2023-02-01T05:54:22;5.80;99.90
45735;DHT22;31446;49.632;8.328;2023-02-01T06:09:29;5.80;99.90
45735;DHT22;31446;49.632;8.328;2023-02-01T06:24:35;5.70;99.90
45735;DHT22;31446;49.632;8.328;2023-02-01T06:39:41;5.70;99.90
45735;DHT22;31446;49.632;8.328;2023-02-01T06:54:47;5.80;99.90
45735;DHT22;31446;49.632;8.328;2023-02-01T07:09:53;6.10;99.90
45735;DHT22;31446;49.632;8.328;2023-02-01T07:24:59;5.80;99.90
45735;DHT22;31446;49.632;8.328;2023-02-01T07:40:06;5.50;99.90
45735;DHT22;31446;49.632;8.328;2023-02-01T07:55:13;5.50;99.90
45735;DHT22;31446;49.632;8.328;2023-02-01T08:10:19;5.50;99.90
45735;DHT22;31446;49.632;8.328;2023-02-01T08:25:25;5.30;99.90
45735;DHT22;31446;49.632;8.328;2023-02-01T08:40:33;5.60;99.90
45735;DHT22;31446;49.632;8.328;2023-02-01T08:55:39;5.90;99.90
45735;DHT22;31446;49.632;8.328;2023-02-01T09:10:45;6.70;99.90
45735;DHT22;31446;49.632;8.328;2023-02-01T09:25:51;7.20;99.90
45735;DHT22;31446;49.632;8.328;2023-02-01T09:40:58;7.00;99.90
45735;DHT22;31446;49.632;8.328;2023-02-01T09:56:07;7.20;99.90
45735;DHT22;31446;49.632;8.328;2023-02-01T10:11:21;7.60;99.90
45735;DHT22;31446;49.632;8.328;2023-02-01T10:26:34;7.70;99.90
45735;DHT22;31446;49.632;8.328;2023-02-01T10:41:43;7.80;99.90
45735;DHT22;31446;49.632;8.328;2023-02-01T10:56:50;8.00;99.90
45735;DHT22;31446;49.632;8.328;2023-02-01T11:11:58;8.20;99.90
45735;DHT22;31446;49.632;8.328;2023-02-01T11:27:12;8.30;99.90
45735;DHT22;31446;49.632;8.328;2023-02-01T11:42:19;8.00;99.90
45735;DHT22;31446;49.632;8.328;2023-02-01T11:57:42;8.00;99.90
45735;DHT22;31446;49.632;8.328;2023-02-01T12:12:51;7.90;99.90
45735;DHT22;31446;49.632;8.328;2023-02-01T12:28:27;8.00;99.90
45735;DHT22;31446;49.632;8.328;2023-02-01T12:43:45;7.80;99.90
45735;DHT22;31446;49.632;8.328;2023-02-01T12:58:53;7.60;99.90
45735;DHT22;31446;49.632;8.328;2023-02-01T13:14:07;7.80;99.90
45735;DHT22;31446;49.632;8.328;2023-02-01T13:29:20;8.10;99.90
45735;DHT22;31446;49.632;8.328;2023-02-01T13:44:31;8.30;99.90
45735;DHT22;31446;49.632;8.328;2023-02-01T13:59:49;8.30;99.90
45735;DHT22;31446;49.632;8.328;2023-02-01T14:15:17;8.30;99.90
45735;DHT22;31446;49.632;8.328;2023-02-01T14:30:25;8.60;99.90
45735;DHT22;31446;49.632;8.328;2023-02-01T14:45:50;8.80;99.90
45735;DHT22;31446;49.632;8.328;2023-02-01T15:00:58;8.20;99.90
45735;DHT22;31446;49.632;8.328;2023-02-01T15:16:11;8.70;99.90
45735;DHT22;31446;49.632;8.328;2023-02-01T15:31:31;8.50;99.90
45735;DHT22;31446;49.632;8.328;2023-02-01T15:46:42;8.20;99.90
45735;DHT22;31446;49.632;8.328;2023-02-01T16:01:49;7.70;99.90
45735;DHT22;31446;49.632;8.328;2023-02-01T16:16:57;7.40;99.90
45735;DHT22;31446;49.632;8.328;2023-02-01T16:32:04;7.40;99.90
45735;DHT22;31446;49.632;8.328;2023-02-01T16:47:16;7.30;99.90
45735;DHT22;31446;49.632;8.328;2023-02-01T17:02:23;7.30;99.90
45735;DHT22;31446;49.632;8.328;2023-02-01T17:17:33;7.10;99.90
45735;DHT22;31446;49.632;8.328;2023-02-01T17:32:41;6.90;99.90
45735;DHT22;31446;49.632;8.328;2023-02-01T17:47:47;6.60;99.90
45735;DHT22;31446;49.632;8.328;2023-02-01T18:02:53;6.70;99.90
45735;DHT22;31446;49.632;8.328;2023-02-01T18:17:59;6.50;99.90
45735;DHT22;31446;49.632;8.328;2023-02-01T18:33:09;6.50;99.90
45735;DHT22;31446;49.632;8.328;2023-02-01T18:48:16;6.50;99.90
45735;DHT22;31446;49.632;8.328;2023-02-01T19:03:24;6.50;99.90
45735;DHT22;31446;49.632;8.328;2023-02-01T19:18:31;6.50;99.90
45735;DHT22;31446;49.632;8.328;2023-02-01T19:33:40;6.60;99.90
45735;DHT22;31446;49.632;8.328;2023-02-01T19:48:46;6.60;99.90
45735;DHT22;31446;49.632;8.328;2023-02-01T20:03:52;6.70;99.90
45735;DHT22;31446;49.632;8.328;2023-02-01T20:19:01;6.70;99.90
45735;DHT22;31446;49.632;8.328;2023-02-01T20:34:09;6.80;99.90
45735;DHT22;31446;49.632;8.328;2023-02-01T20:49:15;6.90;99.90
45735;DHT22;31446;49.632;8.328;2023-02-01T21:04:23;7.00;99.90
45735;DHT22;31446;49.632;8.328;2023-02-01T21:19:29;6.90;99.90
45735;DHT22;31446;49.632;8.328;2023-02-01T21:34:44;6.80;99.90
45735;DHT22;31446;49.632;8.328;2023-02-01T21:49:51;7.00;99.90
45735;DHT22;31446;49.632;8.328;2023-02-01T22:04:57;7.10;99.90
45735;DHT22;31446;49.632;8.328;2023-02-01T22:20:04;7.20;99.90
45735;DHT22;31446;49.632;8.328;2023-02-01T22:35:11;7.30;99.90
45735;DHT22;31446;49.632;8.328;2023-02-01T22:50:18;7.30;99.90
45735;DHT22;31446;49.632;8.328;2023-02-01T23:05:25;7.20;99.90
45735;DHT22;31446;49.632;8.328;2023-02-01T23:20:31;7.10;99.90
45735;DHT22;31446;49.632;8.328;2023-02-01T23:35:37;7.20;99.90
45735;DHT22;31446;49.632;8.328;2023-02-01T23:50:43;7.10;99.90
